sensor_id;sensor_type;location;lat;lon;timestamp;temperature;humidity
7155;DHT22;3619;53.784;10.440;2023-02-18T00:00:22;6.80;99.90
7155;DHT22;3619;53.784;10.440;2023-02-18T00:02:49;6.80;99.90
7155;DHT22;3619;53.784;10.440;2023-02-18T00:05:16;6.80;99.90
7155;DHT22;3619;53.784;10.440;2023-02-18T00:07:43;6.80;99.90
7155;DHT22;3619;53.784;10.440;2023-02-18T00:10:13;6.90;99.90
7155;DHT22;3619;53.784;10.440;2023-02-18T00:12:40;6.80;99.90
7155;DHT22;3619;53.784;10.440;2023-02-18T00:15:08;6.80;99.90
7155;DHT22;3619;53.784;10.440;2023-02-18T00:17:35;6.80;99.90
7155;DHT22;3619;53.784;10.440;2023-02-18T00:20:03;6.80;99.90
7155;DHT22;3619;53.784;10.440;2023-02-18T00:22:30;6.80;99.90
7155;DHT22;3619;53.784;10.440;2023-02-18T00:24:57;6.80;99.90
7155;DHT22;3619;53.784;10.440;2023-02-18T00:27:25;6.80;99.90
7155;DHT22;3619;53.784;10.440;2023-02-18T00:29:52;6.80;99.90
7155;DHT22;3619;53.784;10.440;2023-02-18T00:32:19;6.70;99.90
7155;DHT22;3619;53.784;10.440;2023-02-18T00:34:45;6.70;99.90
7155;DHT22;3619;53.784;10.440;2023-02-18T00:37:12;6.70;99.90
7155;DHT22;3619;53.784;10.440;2023-02-18T00:39:39;6.60;99.90
7155;DHT22;3619;53.784;10.440;2023-02-18T00:42:06;6.60;99.90
7155;DHT22;3619;53.784;10.440;2023-02-18T00:44:34;6.60;99.90
7155;DHT22;3619;53.784;10.440;2023-02-18T00:47:01;6.60;99.90
7155;DHT22;3619;53.784;10.440;2023-02-18T00:49:28;6.60;99.90
7155;DHT22;3619;53.784;10.440;2023-02-18T00:51:54;6.60;99.90
7155;DHT22;3619;53.784;10.440;2023-02-18T00:54:21;6.60;99.90
7155;DHT22;3619;53.784;10.440;2023-02-18T00:56:48;6.60;99.90
7155;DHT22;3619;53.784;10.440;2023-02-18T00:59:15;6.50;99.90
7155;DHT22;3619;53.784;10.440;2023-02-18T01:01:43;6.50;99.90
7155;DHT22;3619;53.784;10.440;2023-02-18T01:04:10;6.60;99.90
7155;DHT22;3619;53.784;10.440;2023-02-18T01:06:37;6.60;99.90
7155;DHT22;3619;53.784;10.440;2023-02-18T01:09:04;6.60;99.90
7155;DHT22;3619;53.784;10.440;2023-02-18T01:11:31;6.50;99.90
7155;DHT22;3619;53.784;10.440;2023-02-18T01:13:59;6.50;99.90
7155;DHT22;3619;53.784;10.440;2023-02-18T01:16:26;6.50;99.90
7155;DHT22;3619;53.784;10.440;2023-02-18T01:18:54;6.50;99.90
7155;DHT22;3619;53.784;10.440;2023-02-18T01:21:21;6.50;99.90
7155;DHT22;3619;53.784;10.440;2023-02-18T01:23:48;6.50;99.90
7155;DHT22;3619;53.784;10.440;2023-02-18T01:26:15;6.50;99.90
7155;DHT22;3619;53.784;10.440;2023-02-18T01:28:42;6.40;99.90
7155;DHT22;3619;53.784;10.440;2023-02-18T01:31:11;6.30;99.90
7155;DHT22;3619;53.784;10.440;2023-02-18T01:33:38;6.30;99.90
7155;DHT22;3619;53.784;10.440;2023-02-18T01:36:07;6.30;99.90
7155;DHT22;3619;53.784;10.440;2023-02-18T01:38:35;6.30;99.90
7155;DHT22;3619;53.784;10.440;2023-02-18T01:41:02;6.20;99.90
7155;DHT22;3619;53.784;10.440;2023-02-18T01:43:29;6.20;99.90
7155;DHT22;3619;53.784;10.440;2023-02-18T01:45:59;6.20;99.90
7155;DHT22;3619;53.784;10.440;2023-02-18T01:48:31;6.20;99.90
7155;DHT22;3619;53.784;10.440;2023-02-18T01:51:03;6.20;99.90
7155;DHT22;3619;53.784;10.440;2023-02-18T01:53:36;6.20;99.90
7155;DHT22;3619;53.784;10.440;2023-02-18T01:56:09;6.20;99.90
7155;DHT22;3619;53.784;10.440;2023-02-18T01:58:37;6.20;99.90
7155;DHT22;3619;53.784;10.440;2023-02-18T02:01:04;6.20;99.90
7155;DHT22;3619;53.784;10.440;2023-02-18T02:03:31;6.20;99.90
7155;DHT22;3619;53.784;10.440;2023-02-18T02:05:58;6.20;99.90
7155;DHT22;3619;53.784;10.440;2023-02-18T02:08:25;6.20;99.90
7155;DHT22;3619;53.784;10.440;2023-02-18T02:11:04;6.20;99.90
7155;DHT22;3619;53.784;10.440;2023-02-18T02:13:43;6.20;99.90
7155;DHT22;3619;53.784;10.440;2023-02-18T02:16:17;6.20;99.90
7155;DHT22;3619;53.784;10.440;2023-02-18T02:18:56;6.10;99.90
7155;DHT22;3619;53.784;10.440;2023-02-18T02:21:52;6.10;99.90
7155;DHT22;3619;53.784;10.440;2023-02-18T02:24:53;6.10;99.90
7155;DHT22;3619;53.784;10.440;2023-02-18T02:27:27;6.10;99.90
7155;DHT22;3619;53.784;10.440;2023-02-18T02:33:37;6.10;99.90
7155;DHT22;3619;53.784;10.440;2023-02-18T02:36:13;6.10;99.90
7155;DHT22;3619;53.784;10.440;2023-02-18T02:38:49;6.10;99.90
7155;DHT22;3619;53.784;10.440;2023-02-18T02:41:30;6.00;99.90
7155;DHT22;3619;53.784;10.440;2023-02-18T02:44:19;6.00;99.90
7155;DHT22;3619;53.784;10.440;2023-02-18T02:46:47;6.00;99.90
7155;DHT22;3619;53.784;10.440;2023-02-18T02:49:34;6.00;99.90
7155;DHT22;3619;53.784;10.440;2023-02-18T02:52:04;6.00;99.90
7155;DHT22;3619;53.784;10.440;2023-02-18T02:54:33;6.00;99.90
7155;DHT22;3619;53.784;10.440;2023-02-18T02:57:09;6.00;99.90
7155;DHT22;3619;53.784;10.440;2023-02-18T02:59:59;6.00;99.90
7155;DHT22;3619;53.784;10.440;2023-02-18T03:02:33;6.00;99.90
7155;DHT22;3619;53.784;10.440;2023-02-18T03:05:13;5.90;99.90
7155;DHT22;3619;53.784;10.440;2023-02-18T03:07:57;5.90;99.90
7155;DHT22;3619;53.784;10.440;2023-02-18T03:10:47;5.90;99.90
7155;DHT22;3619;53.784;10.440;2023-02-18T03:13:28;5.90;99.90
7155;DHT22;3619;53.784;10.440;2023-02-18T03:16:07;5.90;99.90
7155;DHT22;3619;53.784;10.440;2023-02-18T03:18:39;5.90;99.90
7155;DHT22;3619;53.784;10.440;2023-02-18T03:21:10;5.90;99.90
7155;DHT22;3619;53.784;10.440;2023-02-18T03:23:40;5.90;99.90
7155;DHT22;3619;53.784;10.440;2023-02-18T03:26:10;5.80;99.90
7155;DHT22;3619;53.784;10.440;2023-02-18T03:28:38;5.80;99.90
7155;DHT22;3619;53.784;10.440;2023-02-18T03:31:09;5.80;99.90
7155;DHT22;3619;53.784;10.440;2023-02-18T03:33:42;5.80;99.90
7155;DHT22;3619;53.784;10.440;2023-02-18T03:36:11;5.80;99.90
7155;DHT22;3619;53.784;10.440;2023-02-18T03:38:42;5.80;99.90
7155;DHT22;3619;53.784;10.440;2023-02-18T03:41:11;5.80;99.90
7155;DHT22;3619;53.784;10.440;2023-02-18T03:43:39;5.80;99.90
7155;DHT22;3619;53.784;10.440;2023-02-18T03:46:08;5.80;99.90
7155;DHT22;3619;53.784;10.440;2023-02-18T03:48:34;5.80;99.90
7155;DHT22;3619;53.784;10.440;2023-02-18T03:51:01;5.80;99.90
7155;DHT22;3619;53.784;10.440;2023-02-18T03:53:28;5.80;99.90
7155;DHT22;3619;53.784;10.440;2023-02-18T03:55:55;5.80;99.90
7155;DHT22;3619;53.784;10.440;2023-02-18T03:58:22;5.80;99.90
7155;DHT22;3619;53.784;10.440;2023-02-18T04:00:51;5.80;99.90
7155;DHT22;3619;53.784;10.440;2023-02-18T04:03:19;5.80;99.90
7155;DHT22;3619;53.784;10.440;2023-02-18T04:05:46;5.80;99.90
7155;DHT22;3619;53.784;10.440;2023-02-18T04:08:13;5.90;99.90
7155;DHT22;3619;53.784;10.440;2023-02-18T04:10:40;5.90;99.90
7155;DHT22;3619;53.784;10.440;2023-02-18T04:13:06;6.00;99.90
7155;DHT22;3619;53.784;10.440;2023-02-18T04:15:33;6.00;99.90
7155;DHT22;3619;53.784;10.440;2023-02-18T04:18:00;6.00;99.90
7155;DHT22;3619;53.784;10.440;2023-02-18T04:20:28;6.10;99.90
7155;DHT22;3619;53.784;10.440;2023-02-18T04:22:55;6.10;99.90
7155;DHT22;3619;53.784;10.440;2023-02-18T04:25:22;6.20;99.90
7155;DHT22;3619;53.784;10.440;2023-02-18T04:27:48;6.20;99.90
7155;DHT22;3619;53.784;10.440;2023-02-18T04:30:15;6.30;99.90
7155;DHT22;3619;53.784;10.440;2023-02-18T04:32:42;6.40;99.90
7155;DHT22;3619;53.784;10.440;2023-02-18T04:35:09;6.40;99.90
7155;DHT22;3619;53.784;10.440;2023-02-18T04:37:37;6.40;99.90
7155;DHT22;3619;53.784;10.440;2023-02-18T04:40:05;6.40;99.90
7155;DHT22;3619;53.784;10.440;2023-02-18T04:42:33;6.40;99.90
7155;DHT22;3619;53.784;10.440;2023-02-18T04:45:00;6.40;99.90
7155;DHT22;3619;53.784;10.440;2023-02-18T04:47:26;6.40;99.90
7155;DHT22;3619;53.784;10.440;2023-02-18T04:49:53;6.40;99.90
7155;DHT22;3619;53.784;10.440;2023-02-18T04:52:20;6.30;99.90
7155;DHT22;3619;53.784;10.440;2023-02-18T04:54:49;6.30;99.90
7155;DHT22;3619;53.784;10.440;2023-02-18T04:57:16;6.20;99.90
7155;DHT22;3619;53.784;10.440;2023-02-18T04:59:43;6.20;99.90
7155;DHT22;3619;53.784;10.440;2023-02-18T05:02:09;6.20;99.90
7155;DHT22;3619;53.784;10.440;2023-02-18T05:04:36;6.20;99.90
7155;DHT22;3619;53.784;10.440;2023-02-18T05:07:03;6.20;99.90
7155;DHT22;3619;53.784;10.440;2023-02-18T05:09:30;6.20;99.90
7155;DHT22;3619;53.784;10.440;2023-02-18T05:11:58;6.10;99.90
7155;DHT22;3619;53.784;10.440;2023-02-18T05:14:25;6.10;99.90
7155;DHT22;3619;53.784;10.440;2023-02-18T05:16:52;6.10;99.90
7155;DHT22;3619;53.784;10.440;2023-02-18T05:19:19;6.10;99.90
7155;DHT22;3619;53.784;10.440;2023-02-18T05:21:45;6.00;99.90
7155;DHT22;3619;53.784;10.440;2023-02-18T05:24:12;6.00;99.90
7155;DHT22;3619;53.784;10.440;2023-02-18T05:26:39;6.00;99.90
7155;DHT22;3619;53.784;10.440;2023-02-18T05:29:07;6.00;99.90
7155;DHT22;3619;53.784;10.440;2023-02-18T05:31:34;6.00;99.90
7155;DHT22;3619;53.784;10.440;2023-02-18T05:34:02;6.00;99.90
7155;DHT22;3619;53.784;10.440;2023-02-18T05:36:29;5.90;99.90
7155;DHT22;3619;53.784;10.440;2023-02-18T05:38:56;5.90;99.90
7155;DHT22;3619;53.784;10.440;2023-02-18T05:41:23;5.90;99.90
7155;DHT22;3619;53.784;10.440;2023-02-18T05:43:50;5.90;99.90
7155;DHT22;3619;53.784;10.440;2023-02-18T05:46:35;5.90;99.90
7155;DHT22;3619;53.784;10.440;2023-02-18T05:49:02;5.80;99.90
7155;DHT22;3619;53.784;10.440;2023-02-18T05:51:29;5.80;99.90
7155;DHT22;3619;53.784;10.440;2023-02-18T05:53:55;5.80;99.90
7155;DHT22;3619;53.784;10.440;2023-02-18T05:56:22;5.80;99.90
7155;DHT22;3619;53.784;10.440;2023-02-18T05:58:49;5.80;99.90
7155;DHT22;3619;53.784;10.440;2023-02-18T06:01:16;5.80;99.90
7155;DHT22;3619;53.784;10.440;2023-02-18T06:03:44;5.80;99.90
7155;DHT22;3619;53.784;10.440;2023-02-18T06:06:11;5.80;99.90
7155;DHT22;3619;53.784;10.440;2023-02-18T06:08:38;5.80;99.90
7155;DHT22;3619;53.784;10.440;2023-02-18T06:11:05;5.80;99.90
7155;DHT22;3619;53.784;10.440;2023-02-18T06:13:31;5.80;99.90
7155;DHT22;3619;53.784;10.440;2023-02-18T06:15:58;5.80;99.90
7155;DHT22;3619;53.784;10.440;2023-02-18T06:18:25;5.80;99.90
7155;DHT22;3619;53.784;10.440;2023-02-18T06:20:54;5.80;99.90
7155;DHT22;3619;53.784;10.440;2023-02-18T06:23:20;5.80;99.90
7155;DHT22;3619;53.784;10.440;2023-02-18T06:25:47;5.80;99.90
7155;DHT22;3619;53.784;10.440;2023-02-18T06:28:14;5.80;99.90
7155;DHT22;3619;53.784;10.440;2023-02-18T06:30:41;5.80;99.90
7155;DHT22;3619;53.784;10.440;2023-02-18T06:33:08;5.80;99.90
7155;DHT22;3619;53.784;10.440;2023-02-18T06:35:36;5.80;99.90
7155;DHT22;3619;53.784;10.440;2023-02-18T06:38:04;5.80;99.90
7155;DHT22;3619;53.784;10.440;2023-02-18T06:40:31;5.80;99.90
7155;DHT22;3619;53.784;10.440;2023-02-18T06:42:59;5.80;99.90
7155;DHT22;3619;53.784;10.440;2023-02-18T06:45:26;5.80;99.90
7155;DHT22;3619;53.784;10.440;2023-02-18T06:47:53;5.70;99.90
7155;DHT22;3619;53.784;10.440;2023-02-18T06:50:20;5.70;99.90
7155;DHT22;3619;53.784;10.440;2023-02-18T06:52:46;5.80;99.90
7155;DHT22;3619;53.784;10.440;2023-02-18T06:55:15;5.80;99.90
7155;DHT22;3619;53.784;10.440;2023-02-18T06:57:41;5.80;99.90
7155;DHT22;3619;53.784;10.440;2023-02-18T07:00:09;5.80;99.90
7155;DHT22;3619;53.784;10.440;2023-02-18T07:02:36;5.80;99.90
7155;DHT22;3619;53.784;10.440;2023-02-18T07:05:09;5.80;99.90
7155;DHT22;3619;53.784;10.440;2023-02-18T07:07:35;5.80;99.90
7155;DHT22;3619;53.784;10.440;2023-02-18T07:10:06;5.80;99.90
7155;DHT22;3619;53.784;10.440;2023-02-18T07:12:35;5.80;99.90
7155;DHT22;3619;53.784;10.440;2023-02-18T07:15:01;5.80;99.90
7155;DHT22;3619;53.784;10.440;2023-02-18T07:17:29;5.80;99.90
7155;DHT22;3619;53.784;10.440;2023-02-18T07:19:56;5.80;99.90
7155;DHT22;3619;53.784;10.440;2023-02-18T07:22:22;5.80;99.90
7155;DHT22;3619;53.784;10.440;2023-02-18T07:24:50;5.80;99.90
7155;DHT22;3619;53.784;10.440;2023-02-18T07:27:17;5.80;99.90
7155;DHT22;3619;53.784;10.440;2023-02-18T07:29:46;5.80;99.90
7155;DHT22;3619;53.784;10.440;2023-02-18T07:32:13;5.80;99.90
7155;DHT22;3619;53.784;10.440;2023-02-18T07:34:40;5.70;99.90
7155;DHT22;3619;53.784;10.440;2023-02-18T07:37:07;5.70;99.90
7155;DHT22;3619;53.784;10.440;2023-02-18T07:39:39;5.70;99.90
7155;DHT22;3619;53.784;10.440;2023-02-18T07:42:10;5.70;99.90
7155;DHT22;3619;53.784;10.440;2023-02-18T07:44:38;5.70;99.90
7155;DHT22;3619;53.784;10.440;2023-02-18T07:47:08;5.60;99.90
7155;DHT22;3619;53.784;10.440;2023-02-18T07:49:36;5.60;99.90
7155;DHT22;3619;53.784;10.440;2023-02-18T07:52:05;5.60;99.90
7155;DHT22;3619;53.784;10.440;2023-02-18T07:54:32;5.50;99.90
7155;DHT22;3619;53.784;10.440;2023-02-18T07:56:59;5.50;99.90
7155;DHT22;3619;53.784;10.440;2023-02-18T07:59:25;5.50;99.90
7155;DHT22;3619;53.784;10.440;2023-02-18T08:01:55;5.50;99.90
7155;DHT22;3619;53.784;10.440;2023-02-18T08:04:24;5.50;99.90
7155;DHT22;3619;53.784;10.440;2023-02-18T08:06:51;5.50;99.90
7155;DHT22;3619;53.784;10.440;2023-02-18T08:09:18;5.50;99.90
7155;DHT22;3619;53.784;10.440;2023-02-18T08:11:45;5.50;99.90
7155;DHT22;3619;53.784;10.440;2023-02-18T08:14:12;5.50;99.90
7155;DHT22;3619;53.784;10.440;2023-02-18T08:16:41;5.60;99.90
7155;DHT22;3619;53.784;10.440;2023-02-18T08:19:08;5.60;99.90
7155;DHT22;3619;53.784;10.440;2023-02-18T08:21:39;5.60;99.90
7155;DHT22;3619;53.784;10.440;2023-02-18T08:24:06;5.60;99.90
7155;DHT22;3619;53.784;10.440;2023-02-18T08:26:33;5.60;99.90
7155;DHT22;3619;53.784;10.440;2023-02-18T08:29:01;5.60;99.90
7155;DHT22;3619;53.784;10.440;2023-02-18T08:31:28;5.60;99.90
7155;DHT22;3619;53.784;10.440;2023-02-18T08:33:56;5.60;99.90
7155;DHT22;3619;53.784;10.440;2023-02-18T08:36:25;5.60;99.90
7155;DHT22;3619;53.784;10.440;2023-02-18T08:38:53;5.60;99.90
7155;DHT22;3619;53.784;10.440;2023-02-18T08:41:20;5.60;99.90
7155;DHT22;3619;53.784;10.440;2023-02-18T08:43:47;5.70;99.90
7155;DHT22;3619;53.784;10.440;2023-02-18T08:46:15;5.70;99.90
7155;DHT22;3619;53.784;10.440;2023-02-18T08:48:42;5.70;99.90
7155;DHT22;3619;53.784;10.440;2023-02-18T08:51:13;5.70;99.90
7155;DHT22;3619;53.784;10.440;2023-02-18T08:53:40;5.80;99.90
7155;DHT22;3619;53.784;10.440;2023-02-18T08:56:09;5.80;99.90
7155;DHT22;3619;53.784;10.440;2023-02-18T08:58:36;5.80;99.90
7155;DHT22;3619;53.784;10.440;2023-02-18T09:01:05;5.90;99.90
7155;DHT22;3619;53.784;10.440;2023-02-18T09:03:32;5.80;99.90
7155;DHT22;3619;53.784;10.440;2023-02-18T09:05:59;5.80;99.90
7155;DHT22;3619;53.784;10.440;2023-02-18T09:08:26;5.90;99.90
7155;DHT22;3619;53.784;10.440;2023-02-18T09:10:55;6.00;99.90
7155;DHT22;3619;53.784;10.440;2023-02-18T09:13:23;6.10;99.90
7155;DHT22;3619;53.784;10.440;2023-02-18T09:15:58;6.10;99.90
7155;DHT22;3619;53.784;10.440;2023-02-18T09:18:25;6.10;99.90
7155;DHT22;3619;53.784;10.440;2023-02-18T09:20:55;6.20;99.90
7155;DHT22;3619;53.784;10.440;2023-02-18T09:23:23;6.30;99.90
7155;DHT22;3619;53.784;10.440;2023-02-18T09:25:50;6.30;99.90
7155;DHT22;3619;53.784;10.440;2023-02-18T09:28:17;6.40;99.90
7155;DHT22;3619;53.784;10.440;2023-02-18T09:30:45;6.40;99.90
7155;DHT22;3619;53.784;10.440;2023-02-18T09:33:12;6.40;99.90
7155;DHT22;3619;53.784;10.440;2023-02-18T09:35:39;6.40;99.90
7155;DHT22;3619;53.784;10.440;2023-02-18T09:38:07;6.30;99.90
7155;DHT22;3619;53.784;10.440;2023-02-18T09:40:36;6.30;99.90
7155;DHT22;3619;53.784;10.440;2023-02-18T09:43:05;6.30;99.90
7155;DHT22;3619;53.784;10.440;2023-02-18T09:45:32;6.30;99.90
7155;DHT22;3619;53.784;10.440;2023-02-18T09:48:01;6.20;99.90
7155;DHT22;3619;53.784;10.440;2023-02-18T09:50:32;6.20;99.90
7155;DHT22;3619;53.784;10.440;2023-02-18T09:53:00;6.20;99.90
7155;DHT22;3619;53.784;10.440;2023-02-18T09:55:29;6.30;99.90
7155;DHT22;3619;53.784;10.440;2023-02-18T09:57:59;6.30;99.90
7155;DHT22;3619;53.784;10.440;2023-02-18T10:00:30;6.30;99.90
7155;DHT22;3619;53.784;10.440;2023-02-18T10:03:03;6.30;99.90
7155;DHT22;3619;53.784;10.440;2023-02-18T10:05:33;6.40;99.90
7155;DHT22;3619;53.784;10.440;2023-02-18T10:08:03;6.40;99.90
7155;DHT22;3619;53.784;10.440;2023-02-18T10:10:37;6.40;99.90
7155;DHT22;3619;53.784;10.440;2023-02-18T10:13:09;6.30;99.90
7155;DHT22;3619;53.784;10.440;2023-02-18T10:15:38;6.30;99.90
7155;DHT22;3619;53.784;10.440;2023-02-18T10:18:21;6.30;99.90
7155;DHT22;3619;53.784;10.440;2023-02-18T10:20:51;6.30;99.90
7155;DHT22;3619;53.784;10.440;2023-02-18T10:23:19;6.30;99.90
7155;DHT22;3619;53.784;10.440;2023-02-18T10:25:48;6.30;99.90
7155;DHT22;3619;53.784;10.440;2023-02-18T10:28:18;6.20;99.90
7155;DHT22;3619;53.784;10.440;2023-02-18T10:30:54;6.20;99.90
7155;DHT22;3619;53.784;10.440;2023-02-18T10:33:33;6.30;99.90
7155;DHT22;3619;53.784;10.440;2023-02-18T10:36:11;6.30;99.90
7155;DHT22;3619;53.784;10.440;2023-02-18T10:38:48;6.30;99.90
7155;DHT22;3619;53.784;10.440;2023-02-18T10:41:26;6.30;99.90
7155;DHT22;3619;53.784;10.440;2023-02-18T10:44:03;6.30;99.90
7155;DHT22;3619;53.784;10.440;2023-02-18T10:46:39;6.30;99.90
7155;DHT22;3619;53.784;10.440;2023-02-18T10:49:49;6.30;99.90
7155;DHT22;3619;53.784;10.440;2023-02-18T10:52:20;6.30;99.90
7155;DHT22;3619;53.784;10.440;2023-02-18T10:54:51;6.30;99.90
7155;DHT22;3619;53.784;10.440;2023-02-18T10:57:20;6.40;99.90
7155;DHT22;3619;53.784;10.440;2023-02-18T11:00:00;6.50;99.90
7155;DHT22;3619;53.784;10.440;2023-02-18T11:02:35;6.60;99.90
7155;DHT22;3619;53.784;10.440;2023-02-18T11:05:17;6.70;99.90
7155;DHT22;3619;53.784;10.440;2023-02-18T11:07:47;6.70;99.90
7155;DHT22;3619;53.784;10.440;2023-02-18T11:10:17;6.70;99.90
7155;DHT22;3619;53.784;10.440;2023-02-18T11:12:49;6.60;99.90
7155;DHT22;3619;53.784;10.440;2023-02-18T11:15:19;6.60;99.90
7155;DHT22;3619;53.784;10.440;2023-02-18T11:17:48;6.70;99.90
7155;DHT22;3619;53.784;10.440;2023-02-18T11:20:27;6.70;99.90
7155;DHT22;3619;53.784;10.440;2023-02-18T11:23:14;6.80;99.90
7155;DHT22;3619;53.784;10.440;2023-02-18T11:25:52;6.80;99.90
7155;DHT22;3619;53.784;10.440;2023-02-18T11:28:30;6.80;99.90
7155;DHT22;3619;53.784;10.440;2023-02-18T11:31:02;6.80;99.90
7155;DHT22;3619;53.784;10.440;2023-02-18T11:33:33;6.80;99.90
7155;DHT22;3619;53.784;10.440;2023-02-18T11:36:08;6.80;99.90
7155;DHT22;3619;53.784;10.440;2023-02-18T11:38:43;6.80;99.90
7155;DHT22;3619;53.784;10.440;2023-02-18T11:41:12;6.80;99.90
7155;DHT22;3619;53.784;10.440;2023-02-18T11:43:46;6.70;99.90
7155;DHT22;3619;53.784;10.440;2023-02-18T11:46:16;6.70;99.90
7155;DHT22;3619;53.784;10.440;2023-02-18T11:48:44;6.60;99.90
7155;DHT22;3619;53.784;10.440;2023-02-18T11:51:18;6.70;99.90
7155;DHT22;3619;53.784;10.440;2023-02-18T11:53:56;6.60;99.90
7155;DHT22;3619;53.784;10.440;2023-02-18T11:56:25;6.50;99.90
7155;DHT22;3619;53.784;10.440;2023-02-18T11:58:53;6.40;99.90
7155;DHT22;3619;53.784;10.440;2023-02-18T12:01:27;6.60;99.90
7155;DHT22;3619;53.784;10.440;2023-02-18T12:04:01;6.60;99.90
7155;DHT22;3619;53.784;10.440;2023-02-18T12:06:33;6.60;99.90
7155;DHT22;3619;53.784;10.440;2023-02-18T12:09:05;6.60;99.90
7155;DHT22;3619;53.784;10.440;2023-02-18T12:11:35;6.60;99.90
7155;DHT22;3619;53.784;10.440;2023-02-18T12:14:10;6.60;99.90
7155;DHT22;3619;53.784;10.440;2023-02-18T12:16:46;6.60;99.90
7155;DHT22;3619;53.784;10.440;2023-02-18T12:19:43;6.60;99.90
7155;DHT22;3619;53.784;10.440;2023-02-18T12:22:20;6.40;99.90
7155;DHT22;3619;53.784;10.440;2023-02-18T12:27:55;6.50;99.90
7155;DHT22;3619;53.784;10.440;2023-02-18T12:30:40;6.40;99.90
7155;DHT22;3619;53.784;10.440;2023-02-18T12:33:18;6.40;99.90
7155;DHT22;3619;53.784;10.440;2023-02-18T12:35:59;6.30;99.90
7155;DHT22;3619;53.784;10.440;2023-02-18T12:39:09;6.30;99.90
7155;DHT22;3619;53.784;10.440;2023-02-18T12:41:50;6.30;99.90
7155;DHT22;3619;53.784;10.440;2023-02-18T12:44:29;6.20;99.90
7155;DHT22;3619;53.784;10.440;2023-02-18T12:47:13;6.20;99.90
7155;DHT22;3619;53.784;10.440;2023-02-18T12:52:48;6.00;99.90
7155;DHT22;3619;53.784;10.440;2023-02-18T12:55:40;5.80;99.90
7155;DHT22;3619;53.784;10.440;2023-02-18T12:58:18;5.80;99.90
7155;DHT22;3619;53.784;10.440;2023-02-18T13:00:59;5.80;99.90
7155;DHT22;3619;53.784;10.440;2023-02-18T13:04:01;5.70;99.90
7155;DHT22;3619;53.784;10.440;2023-02-18T13:06:46;5.60;99.90
7155;DHT22;3619;53.784;10.440;2023-02-18T13:09:20;5.60;99.90
7155;DHT22;3619;53.784;10.440;2023-02-18T13:11:56;5.50;99.90
7155;DHT22;3619;53.784;10.440;2023-02-18T13:14:29;5.50;99.90
7155;DHT22;3619;53.784;10.440;2023-02-18T13:16:58;5.50;99.90
7155;DHT22;3619;53.784;10.440;2023-02-18T13:19:30;5.50;99.90
7155;DHT22;3619;53.784;10.440;2023-02-18T13:22:00;5.50;99.90
7155;DHT22;3619;53.784;10.440;2023-02-18T13:24:32;5.50;99.90
7155;DHT22;3619;53.784;10.440;2023-02-18T13:27:10;5.50;99.90
7155;DHT22;3619;53.784;10.440;2023-02-18T13:29:44;5.50;99.90
7155;DHT22;3619;53.784;10.440;2023-02-18T13:32:19;5.20;99.90
7155;DHT22;3619;53.784;10.440;2023-02-18T13:34:53;5.00;99.90
7155;DHT22;3619;53.784;10.440;2023-02-18T13:37:30;4.90;99.90
7155;DHT22;3619;53.784;10.440;2023-02-18T13:40:01;4.80;99.90
7155;DHT22;3619;53.784;10.440;2023-02-18T13:42:36;4.70;99.90
7155;DHT22;3619;53.784;10.440;2023-02-18T13:45:24;4.50;99.90
7155;DHT22;3619;53.784;10.440;2023-02-18T13:47:52;4.50;99.90
7155;DHT22;3619;53.784;10.440;2023-02-18T13:50:31;4.50;99.90
7155;DHT22;3619;53.784;10.440;2023-02-18T13:53:22;4.40;99.90
7155;DHT22;3619;53.784;10.440;2023-02-18T13:55:53;4.40;99.90
7155;DHT22;3619;53.784;10.440;2023-02-18T13:58:27;4.40;99.90
7155;DHT22;3619;53.784;10.440;2023-02-18T14:01:00;4.40;99.90
7155;DHT22;3619;53.784;10.440;2023-02-18T14:03:34;4.50;99.90
7155;DHT22;3619;53.784;10.440;2023-02-18T14:06:12;4.40;99.90
7155;DHT22;3619;53.784;10.440;2023-02-18T14:08:40;4.50;99.90
7155;DHT22;3619;53.784;10.440;2023-02-18T14:11:33;4.30;99.90
7155;DHT22;3619;53.784;10.440;2023-02-18T14:17:38;4.40;99.90
7155;DHT22;3619;53.784;10.440;2023-02-18T14:23:41;4.40;99.90
7155;DHT22;3619;53.784;10.440;2023-02-18T14:26:16;4.50;99.90
7155;DHT22;3619;53.784;10.440;2023-02-18T14:28:51;4.50;99.90
7155;DHT22;3619;53.784;10.440;2023-02-18T14:40:24;4.60;99.90
7155;DHT22;3619;53.784;10.440;2023-02-18T14:42:59;4.60;99.90
7155;DHT22;3619;53.784;10.440;2023-02-18T14:45:34;4.60;99.90
7155;DHT22;3619;53.784;10.440;2023-02-18T14:48:22;4.60;99.90
7155;DHT22;3619;53.784;10.440;2023-02-18T14:50:52;4.70;99.90
7155;DHT22;3619;53.784;10.440;2023-02-18T14:53:23;4.70;99.90
7155;DHT22;3619;53.784;10.440;2023-02-18T14:55:57;4.70;99.90
7155;DHT22;3619;53.784;10.440;2023-02-18T14:58:28;4.60;99.90
7155;DHT22;3619;53.784;10.440;2023-02-18T15:00:56;4.60;99.90
7155;DHT22;3619;53.784;10.440;2023-02-18T15:03:25;4.50;99.90
7155;DHT22;3619;53.784;10.440;2023-02-18T15:05:52;4.60;99.90
7155;DHT22;3619;53.784;10.440;2023-02-18T15:08:22;4.60;99.90
7155;DHT22;3619;53.784;10.440;2023-02-18T15:10:52;4.60;99.90
7155;DHT22;3619;53.784;10.440;2023-02-18T15:13:21;4.60;99.90
7155;DHT22;3619;53.784;10.440;2023-02-18T15:15:53;4.50;99.90
7155;DHT22;3619;53.784;10.440;2023-02-18T15:18:26;4.70;99.90
7155;DHT22;3619;53.784;10.440;2023-02-18T15:20:54;4.80;99.90
7155;DHT22;3619;53.784;10.440;2023-02-18T15:23:22;4.80;99.90
7155;DHT22;3619;53.784;10.440;2023-02-18T15:25:51;4.70;99.90
7155;DHT22;3619;53.784;10.440;2023-02-18T15:28:24;4.70;99.90
7155;DHT22;3619;53.784;10.440;2023-02-18T15:30:51;4.70;99.90
7155;DHT22;3619;53.784;10.440;2023-02-18T15:33:19;4.70;99.90
7155;DHT22;3619;53.784;10.440;2023-02-18T15:35:46;4.70;99.90
7155;DHT22;3619;53.784;10.440;2023-02-18T15:38:15;4.70;99.90
7155;DHT22;3619;53.784;10.440;2023-02-18T15:40:46;4.70;99.90
7155;DHT22;3619;53.784;10.440;2023-02-18T15:43:17;4.80;99.90
7155;DHT22;3619;53.784;10.440;2023-02-18T15:45:46;4.80;99.90
7155;DHT22;3619;53.784;10.440;2023-02-18T15:48:27;4.80;99.90
7155;DHT22;3619;53.784;10.440;2023-02-18T15:50:56;4.70;99.90
7155;DHT22;3619;53.784;10.440;2023-02-18T15:53:24;4.70;99.90
7155;DHT22;3619;53.784;10.440;2023-02-18T15:55:53;4.70;99.90
7155;DHT22;3619;53.784;10.440;2023-02-18T15:58:25;4.70;99.90
7155;DHT22;3619;53.784;10.440;2023-02-18T16:00:55;4.80;99.90
7155;DHT22;3619;53.784;10.440;2023-02-18T16:03:24;4.80;99.90
7155;DHT22;3619;53.784;10.440;2023-02-18T16:06:09;4.80;99.90
7155;DHT22;3619;53.784;10.440;2023-02-18T16:08:36;4.80;99.90
7155;DHT22;3619;53.784;10.440;2023-02-18T16:11:09;4.70;99.90
7155;DHT22;3619;53.784;10.440;2023-02-18T16:13:43;4.70;99.90
7155;DHT22;3619;53.784;10.440;2023-02-18T16:16:20;4.60;99.90
7155;DHT22;3619;53.784;10.440;2023-02-18T16:18:49;4.50;99.90
7155;DHT22;3619;53.784;10.440;2023-02-18T16:21:25;4.50;99.90
7155;DHT22;3619;53.784;10.440;2023-02-18T16:23:53;4.40;99.90
7155;DHT22;3619;53.784;10.440;2023-02-18T16:26:29;4.40;99.90
7155;DHT22;3619;53.784;10.440;2023-02-18T16:29:04;4.30;99.90
7155;DHT22;3619;53.784;10.440;2023-02-18T16:31:36;4.30;99.90
7155;DHT22;3619;53.784;10.440;2023-02-18T16:34:02;4.30;99.90
7155;DHT22;3619;53.784;10.440;2023-02-18T16:36:31;4.20;99.90
7155;DHT22;3619;53.784;10.440;2023-02-18T16:38:58;4.20;99.90
7155;DHT22;3619;53.784;10.440;2023-02-18T16:41:28;4.20;99.90
7155;DHT22;3619;53.784;10.440;2023-02-18T16:43:54;4.10;99.90
7155;DHT22;3619;53.784;10.440;2023-02-18T16:46:23;4.10;99.90
7155;DHT22;3619;53.784;10.440;2023-02-18T16:48:52;4.10;99.90
7155;DHT22;3619;53.784;10.440;2023-02-18T16:51:23;4.10;99.90